createdAt,value
2023-01-25T00:01:06.339Z,2.41
2023-01-25T00:04:07.880Z,2.41
2023-01-25T00:07:09.540Z,2.34
2023-01-25T00:10:11.238Z,2.42
2023-01-25T00:13:12.789Z,2.43
2023-01-25T00:16:14.553Z,2.45
2023-01-25T00:19:16.302Z,2.45
2023-01-25T00:22:17.836Z,2.56
2023-01-25T00:25:19.403Z,2.57
2023-01-25T00:28:20.913Z,2.58
2023-01-25T00:31:53.173Z,2.47
2023-01-25T00:34:58.437Z,2.28
2023-01-25T00:38:02.648Z,2.42
2023-01-25T00:41:04.368Z,2.50
2023-01-25T00:44:06.617Z,2.49
2023-01-25T00:47:10.644Z,2.49
2023-01-25T00:50:12.236Z,2.56
2023-01-25T00:53:14.630Z,2.58
2023-01-25T00:56:16.153Z,2.57
2023-01-25T00:59:18.143Z,2.49
2023-01-25T01:02:19.779Z,2.47
2023-01-25T01:05:21.489Z,2.41
2023-01-25T01:09:00.605Z,2.41
2023-01-25T01:12:58.398Z,2.44
2023-01-25T01:16:18.475Z,2.46
2023-01-25T01:19:20.117Z,2.48
2023-01-25T01:22:22.047Z,2.42
2023-01-25T01:25:23.859Z,2.44
2023-01-25T01:28:25.412Z,2.45
2023-01-25T01:31:27.915Z,2.56
2023-01-25T01:34:39.535Z,2.56
2023-01-25T01:37:42.744Z,2.40
2023-01-25T01:40:45.623Z,2.34
2023-01-25T01:43:47.746Z,2.38
2023-01-25T01:46:59.203Z,2.42
2023-01-25T01:50:16.948Z,2.40
2023-01-25T01:53:24.312Z,2.26
2023-01-25T01:56:36.028Z,2.24
2023-01-25T01:59:56.103Z,2.15
2023-01-25T02:02:58.826Z,2.07
2023-01-25T02:06:25.113Z,2.19
2023-01-25T02:09:29.767Z,2.20
2023-01-25T02:12:32.035Z,2.30
2023-01-25T02:15:46.204Z,2.29
2023-01-25T02:18:47.934Z,2.10
2023-01-25T02:21:51.805Z,2.03
2023-01-25T02:25:22.692Z,2.09
2023-01-25T02:28:32.694Z,2.06
2023-01-25T02:31:34.432Z,2.04
2023-01-25T02:34:36.353Z,2.14
2023-01-25T02:37:38.552Z,2.11
2023-01-25T02:40:51.078Z,2.17
2023-01-25T02:43:54.598Z,2.07
2023-01-25T02:46:56.486Z,1.99
2023-01-25T02:49:58.023Z,1.95
2023-01-25T02:52:59.559Z,1.92
2023-01-25T02:56:01.677Z,2.01
2023-01-25T02:59:05.731Z,2.03
2023-01-25T03:02:09.197Z,1.93
2023-01-25T03:05:10.920Z,1.91
2023-01-25T03:08:13.274Z,2.01
2023-01-25T03:11:15.515Z,1.92
2023-01-25T03:14:18.100Z,1.98
2023-01-25T03:17:19.651Z,1.94
2023-01-25T03:20:21.388Z,1.95
2023-01-25T03:23:23.066Z,2.03
2023-01-25T03:26:26.592Z,2.03
2023-01-25T03:29:43.400Z,1.93
2023-01-25T03:32:50.684Z,1.97
2023-01-25T03:35:55.544Z,1.95
2023-01-25T03:38:57.204Z,1.92
2023-01-25T03:41:58.917Z,1.85
2023-01-25T03:45:00.457Z,1.76
2023-01-25T03:48:02.754Z,1.86
2023-01-25T03:51:04.575Z,1.85
2023-01-25T03:54:08.338Z,1.86
2023-01-25T03:57:10.823Z,1.90
2023-01-25T04:00:24.545Z,1.96
2023-01-25T04:03:33.854Z,1.98
2023-01-25T04:06:35.786Z,1.91
2023-01-25T04:09:37.773Z,1.79
2023-01-25T04:12:41.007Z,1.76
2023-01-25T04:15:42.532Z,1.79
2023-01-25T04:18:53.075Z,1.80
2023-01-25T04:21:55.267Z,1.82
2023-01-25T04:24:58.487Z,1.78
2023-01-25T04:28:24.819Z,1.77
2023-01-25T04:31:26.925Z,1.68
2023-01-25T04:34:28.555Z,1.69
2023-01-25T04:37:30.364Z,1.71
2023-01-25T04:40:33.923Z,1.68
2023-01-25T04:43:35.590Z,1.67
2023-01-25T04:46:42.184Z,1.63
2023-01-25T04:49:43.759Z,1.55
2023-01-25T04:52:45.333Z,1.67
2023-01-25T04:55:47.911Z,1.70
2023-01-25T04:58:50.162Z,1.60
2023-01-25T05:01:51.713Z,1.64
2023-01-25T05:04:53.209Z,1.62
2023-01-25T05:07:55.757Z,1.63
2023-01-25T05:10:57.639Z,1.69
2023-01-25T05:14:13.312Z,1.61
2023-01-25T05:17:17.240Z,1.51
2023-01-25T05:20:18.949Z,1.50
2023-01-25T05:23:21.119Z,1.57
2023-01-25T05:26:41.258Z,1.64
2023-01-25T05:29:44.738Z,1.63
2023-01-25T05:32:48.465Z,1.67
2023-01-25T05:35:50.996Z,1.74
2023-01-25T05:38:53.283Z,1.75
2023-01-25T05:41:55.132Z,1.78
2023-01-25T05:44:57.787Z,1.90
2023-01-25T05:47:59.902Z,1.97
2023-01-25T05:51:01.698Z,1.78
2023-01-25T05:54:08.370Z,1.84
2023-01-25T05:57:10.997Z,1.82
2023-01-25T06:00:16.429Z,1.83
2023-01-25T06:03:18.115Z,1.87
2023-01-25T06:06:21.186Z,1.91
2023-01-25T06:09:23.745Z,1.91
2023-01-25T06:12:26.984Z,1.90
2023-01-25T06:15:30.762Z,1.82
2023-01-25T06:18:51.572Z,1.82
2023-01-25T06:22:09.222Z,1.78
2023-01-25T06:25:11.025Z,1.74
2023-01-25T06:28:12.705Z,1.73
2023-01-25T06:31:16.741Z,1.56
2023-01-25T06:34:18.358Z,1.51
2023-01-25T06:37:21.580Z,1.67
2023-01-25T06:40:23.365Z,1.78
2023-01-25T06:43:25.081Z,1.91
2023-01-25T06:46:27.417Z,1.97
2023-01-25T06:49:29.017Z,2.02
2023-01-25T06:52:31.789Z,2.06
2023-01-25T06:55:33.291Z,2.09
2023-01-25T06:58:37.101Z,1.85
2023-01-25T07:01:38.796Z,1.75
2023-01-25T07:04:40.313Z,1.68
2023-01-25T07:07:46.287Z,1.72
2023-01-25T07:10:54.365Z,1.70
2023-01-25T07:13:55.832Z,1.70
2023-01-25T07:16:57.733Z,1.76
2023-01-25T07:19:59.248Z,1.84
2023-01-25T07:23:02.271Z,1.93
2023-01-25T07:26:24.123Z,1.86
2023-01-25T07:29:36.506Z,1.68
2023-01-25T07:32:38.024Z,1.49
2023-01-25T07:35:39.688Z,1.50
2023-01-25T07:38:41.315Z,1.59
2023-01-25T07:41:42.807Z,1.89
2023-01-25T07:44:47.907Z,2.03
2023-01-25T07:47:49.425Z,2.18
2023-01-25T07:51:10.921Z,2.23
2023-01-25T07:54:12.543Z,2.27
2023-01-25T07:57:15.019Z,2.31
2023-01-25T08:00:17.003Z,2.35
2023-01-25T08:03:22.085Z,2.34
2023-01-25T08:06:40.994Z,2.33
2023-01-25T08:09:42.725Z,2.40
2023-01-25T08:12:46.314Z,2.47
2023-01-25T08:15:54.707Z,2.52
2023-01-25T08:18:58.907Z,2.52
2023-01-25T08:22:00.295Z,2.62
2023-01-25T08:25:02.871Z,2.73
2023-01-25T08:28:04.478Z,2.66
2023-01-25T08:31:09.243Z,2.63
2023-01-25T08:34:11.529Z,2.82
2023-01-25T08:37:13.088Z,2.92
2023-01-25T08:40:14.816Z,3.03
2023-01-25T08:43:16.288Z,3.17
2023-01-25T08:46:17.923Z,3.28
2023-01-25T08:49:19.512Z,3.37
2023-01-25T08:52:22.895Z,3.41
2023-01-25T08:55:24.450Z,3.48
2023-01-25T08:58:25.983Z,3.45
2023-01-25T09:01:27.787Z,3.34
2023-01-25T09:04:29.575Z,3.34
2023-01-25T09:07:32.452Z,3.36
2023-01-25T09:10:34.591Z,3.35
2023-01-25T09:13:36.837Z,3.28
2023-01-25T09:16:38.532Z,3.41
2023-01-25T09:19:42.074Z,3.52
2023-01-25T09:22:43.737Z,3.32
2023-01-25T09:25:45.219Z,3.24
2023-01-25T09:28:49.022Z,3.22
2023-01-25T09:31:51.001Z,3.34
2023-01-25T09:35:11.915Z,3.32
2023-01-25T09:38:13.515Z,3.11
2023-01-25T09:41:53.440Z,3.14
2023-01-25T09:45:13.066Z,3.02
2023-01-25T09:48:41.892Z,3.07
2023-01-25T09:52:05.144Z,3.15
2023-01-25T09:55:15.737Z,3.16
2023-01-25T09:58:26.220Z,3.20
2023-01-25T10:01:38.957Z,3.16
2023-01-25T10:04:44.250Z,3.17
2023-01-25T10:07:53.444Z,3.19
2023-01-25T10:11:16.574Z,3.11
2023-01-25T10:14:19.607Z,3.11
2023-01-25T10:17:40.414Z,3.16
2023-01-25T10:20:54.964Z,3.20
2023-01-25T10:24:19.220Z,3.32
2023-01-25T10:27:33.241Z,3.59
2023-01-25T10:30:43.192Z,3.65
2023-01-25T10:33:47.604Z,3.47
2023-01-25T10:36:54.966Z,3.54
2023-01-25T10:40:03.134Z,3.65
2023-01-25T10:43:11.739Z,3.69
2023-01-25T10:46:21.752Z,3.53
2023-01-25T10:49:29.249Z,3.52
2023-01-25T10:52:32.758Z,3.59
2023-01-25T10:55:34.375Z,3.82
2023-01-25T10:58:37.777Z,3.82
2023-01-25T11:01:39.385Z,3.94
2023-01-25T11:04:43.058Z,3.94
2023-01-25T11:07:46.610Z,3.92
2023-01-25T11:10:48.617Z,3.94
2023-01-25T11:13:50.455Z,4.00
2023-01-25T11:16:52.765Z,4.01
2023-01-25T11:20:20.786Z,3.96
2023-01-25T11:23:26.636Z,3.96
2023-01-25T11:26:28.838Z,4.01
2023-01-25T11:29:30.439Z,4.09
2023-01-25T11:32:32.460Z,4.26
2023-01-25T11:35:36.449Z,4.47
2023-01-25T11:38:44.367Z,4.75
2023-01-25T11:42:07.375Z,4.85
2023-01-25T11:45:38.476Z,4.90
2023-01-25T11:48:57.815Z,4.81
2023-01-25T11:52:15.616Z,4.87
2023-01-25T11:55:27.087Z,4.84
2023-01-25T11:58:38.639Z,5.04
2023-01-25T12:02:07.145Z,5.13
2023-01-25T12:05:51.951Z,5.15
2023-01-25T12:09:28.929Z,5.26
2023-01-25T12:12:45.851Z,5.14
2023-01-25T12:16:06.501Z,5.09
2023-01-25T12:19:38.658Z,5.30
2023-01-25T12:22:59.217Z,5.30
2023-01-25T12:26:09.533Z,5.33
2023-01-25T12:29:32.454Z,5.56
2023-01-25T12:32:41.169Z,5.71
2023-01-25T12:36:06.700Z,5.78
2023-01-25T12:39:25.241Z,5.81
2023-01-25T12:42:36.254Z,5.59
2023-01-25T12:45:38.543Z,5.46
2023-01-25T12:48:47.544Z,5.61
2023-01-25T12:51:50.877Z,5.70
2023-01-25T12:54:56.957Z,5.72
2023-01-25T12:58:26.462Z,5.67
2023-01-25T13:01:41.211Z,5.52
2023-01-25T13:04:56.098Z,5.11
2023-01-25T13:08:30.308Z,4.88
2023-01-25T13:11:39.809Z,4.83
2023-01-25T13:14:41.727Z,5.00
2023-01-25T13:17:43.335Z,4.90
2023-01-25T13:20:49.595Z,4.78
2023-01-25T13:24:12.135Z,4.69
2023-01-25T13:27:26.234Z,4.76
2023-01-25T13:30:34.185Z,4.85
2023-01-25T13:33:36.322Z,4.51
2023-01-25T13:36:40.664Z,4.63
2023-01-25T13:39:54.083Z,4.69
2023-01-25T13:43:03.714Z,4.62
2023-01-25T13:46:08.199Z,4.65
2023-01-25T13:49:21.120Z,4.55
2023-01-25T13:52:24.392Z,4.60
2023-01-25T13:55:27.114Z,4.69
2023-01-25T13:58:34.560Z,4.59
2023-01-25T14:01:36.897Z,4.66
2023-01-25T14:04:38.568Z,4.57
2023-01-25T14:07:45.398Z,4.39
2023-01-25T14:10:48.113Z,4.32
2023-01-25T14:14:21.232Z,4.12
2023-01-25T14:17:23.727Z,4.23
2023-01-25T14:20:25.453Z,4.14
2023-01-25T14:23:29.264Z,4.06
2023-01-25T14:26:38.208Z,3.89
2023-01-25T14:29:40.165Z,3.78
2023-01-25T14:32:42.203Z,3.74
2023-01-25T14:36:11.591Z,3.70
2023-01-25T14:39:16.800Z,3.66
2023-01-25T14:42:19.097Z,3.69
2023-01-25T14:45:23.995Z,3.62
2023-01-25T14:48:42.086Z,3.57
2023-01-25T14:51:53.696Z,3.63
2023-01-25T14:54:58.621Z,3.56
2023-01-25T14:58:01.418Z,3.59
2023-01-25T15:01:03.325Z,3.61
2023-01-25T15:04:11.169Z,3.59
2023-01-25T15:07:43.064Z,3.52
2023-01-25T15:10:51.554Z,3.45
2023-01-25T15:14:01.951Z,3.26
2023-01-25T15:17:03.766Z,3.19
2023-01-25T15:20:05.681Z,3.17
2023-01-25T15:23:28.098Z,3.11
2023-01-25T15:26:31.520Z,3.08
2023-01-25T15:29:33.055Z,3.10
2023-01-25T15:32:34.668Z,3.11
2023-01-25T15:35:36.210Z,3.07
2023-01-25T15:38:37.829Z,3.16
2023-01-25T15:41:39.416Z,3.08
2023-01-25T15:44:40.945Z,3.01
2023-01-25T15:47:42.438Z,3.04
2023-01-25T15:50:44.219Z,2.97
2023-01-25T15:53:46.753Z,2.76
2023-01-25T15:56:54.241Z,2.56
2023-01-25T15:59:56.971Z,2.56
2023-01-25T16:02:58.597Z,2.61
2023-01-25T16:06:03.898Z,2.57
2023-01-25T16:09:26.922Z,2.47
2023-01-25T16:12:28.531Z,2.52
2023-01-25T16:15:30.118Z,2.62
2023-01-25T16:18:31.737Z,2.58
2023-01-25T16:21:33.302Z,2.51
2023-01-25T16:24:34.861Z,2.41
2023-01-25T16:27:36.494Z,2.31
2023-01-25T16:30:38.098Z,2.28
2023-01-25T16:33:39.766Z,2.33
2023-01-25T16:36:41.471Z,2.33
2023-01-25T16:39:43.142Z,2.28
2023-01-25T16:42:44.734Z,2.32
2023-01-25T16:45:48.899Z,2.31
2023-01-25T16:48:52.104Z,2.29
2023-01-25T16:52:02.443Z,2.30
2023-01-25T16:55:05.217Z,2.35
2023-01-25T16:58:06.766Z,2.36
2023-01-25T17:01:10.653Z,2.28
2023-01-25T17:04:12.869Z,2.17
2023-01-25T17:07:14.400Z,2.18
2023-01-25T17:10:16.327Z,2.13
2023-01-25T17:13:17.990Z,2.10
2023-01-25T17:16:21.284Z,2.08
2023-01-25T17:19:23.548Z,1.89
2023-01-25T17:22:25.288Z,1.69
2023-01-25T17:25:27.946Z,1.57
2023-01-25T17:28:29.583Z,1.54
2023-01-25T17:31:33.258Z,1.43
2023-01-25T17:34:34.846Z,1.32
2023-01-25T17:37:40.862Z,1.40
2023-01-25T17:40:42.419Z,1.49
2023-01-25T17:43:44.117Z,1.47
2023-01-25T17:46:46.254Z,1.38
2023-01-25T17:49:47.823Z,1.43
2023-01-25T17:52:49.989Z,1.50
2023-01-25T17:55:51.634Z,1.47
2023-01-25T17:58:53.790Z,1.52
2023-01-25T18:01:55.388Z,1.56
2023-01-25T18:04:57.833Z,1.57
2023-01-25T18:07:59.709Z,1.57
2023-01-25T18:11:01.363Z,1.54
2023-01-25T18:14:08.183Z,1.54
2023-01-25T18:17:09.869Z,1.59
2023-01-25T18:20:11.871Z,1.82
2023-01-25T18:23:13.530Z,1.84
2023-01-25T18:26:20.470Z,1.71
2023-01-25T18:29:35.284Z,1.70
2023-01-25T18:32:36.878Z,1.70
2023-01-25T18:35:38.555Z,1.72
2023-01-25T18:38:40.454Z,1.75
2023-01-25T18:41:44.504Z,1.75
2023-01-25T18:44:48.427Z,1.74
2023-01-25T18:47:50.102Z,1.76
2023-01-25T18:50:51.772Z,1.79
2023-01-25T18:53:53.741Z,1.81
2023-01-25T18:56:55.452Z,1.78
2023-01-25T18:59:58.955Z,1.65
2023-01-25T19:03:01.315Z,1.66
2023-01-25T19:06:03.322Z,1.62
2023-01-25T19:09:04.986Z,1.72
2023-01-25T19:12:06.871Z,1.65
2023-01-25T19:15:09.129Z,1.65
2023-01-25T19:18:10.896Z,1.63
2023-01-25T19:21:24.731Z,1.52
2023-01-25T19:24:27.069Z,1.51
2023-01-25T19:27:30.570Z,1.22
2023-01-25T19:30:32.463Z,1.14
2023-01-25T19:33:34.382Z,1.29
2023-01-25T19:36:38.095Z,1.40
2023-01-25T19:39:39.746Z,1.42
2023-01-25T19:42:41.231Z,1.53
2023-01-25T19:45:42.707Z,1.47
2023-01-25T19:48:47.667Z,1.42
2023-01-25T19:51:53.051Z,1.40
2023-01-25T19:54:54.851Z,1.42
2023-01-25T19:57:56.472Z,1.44
2023-01-25T20:01:12.624Z,1.43
2023-01-25T20:04:19.598Z,1.49
2023-01-25T20:07:22.313Z,1.42
2023-01-25T20:10:23.852Z,1.30
2023-01-25T20:13:25.714Z,1.36
2023-01-25T20:16:28.843Z,1.32
2023-01-25T20:19:30.539Z,1.40
2023-01-25T20:22:32.085Z,1.39
2023-01-25T20:25:33.591Z,1.36
2023-01-25T20:28:35.998Z,1.41
2023-01-25T20:31:41.195Z,1.41
2023-01-25T20:34:43.953Z,1.38
2023-01-25T20:37:50.753Z,1.44
2023-01-25T20:40:52.338Z,1.35
2023-01-25T20:44:04.333Z,1.23
2023-01-25T20:47:05.938Z,1.22
2023-01-25T20:50:09.612Z,1.07
2023-01-25T20:53:12.576Z,1.09
2023-01-25T20:56:16.160Z,1.11
2023-01-25T20:59:19.095Z,1.19
2023-01-25T21:02:20.841Z,1.33
2023-01-25T21:05:22.473Z,1.31
2023-01-25T21:08:25.419Z,1.37
2023-01-25T21:11:27.097Z,1.39
2023-01-25T21:14:28.578Z,1.37
2023-01-25T21:17:30.771Z,1.38
2023-01-25T21:20:32.348Z,1.35
2023-01-25T21:23:35.040Z,1.39
2023-01-25T21:26:37.952Z,1.35
2023-01-25T21:29:39.525Z,1.32
2023-01-25T21:32:41.391Z,1.31
2023-01-25T21:35:43.356Z,1.28
2023-01-25T21:38:47.323Z,1.20
2023-01-25T21:41:48.859Z,1.32
2023-01-25T21:45:09.219Z,1.39
2023-01-25T21:48:10.957Z,1.35
2023-01-25T21:51:31.339Z,1.27
2023-01-25T21:54:35.495Z,1.24
2023-01-25T21:57:36.935Z,1.22
2023-01-25T22:00:38.433Z,1.29
2023-01-25T22:03:40.055Z,1.23
2023-01-25T22:06:41.980Z,1.14
2023-01-25T22:09:43.564Z,1.14
2023-01-25T22:12:45.743Z,1.24
2023-01-25T22:15:47.309Z,1.21
2023-01-25T22:18:49.585Z,1.11
2023-01-25T22:21:51.097Z,1.11
2023-01-25T22:24:52.755Z,1.08
2023-01-25T22:27:59.806Z,1.02
2023-01-25T22:31:01.868Z,1.06
2023-01-25T22:34:04.041Z,1.14
2023-01-25T22:37:05.617Z,1.17
2023-01-25T22:40:07.973Z,1.01
2023-01-25T22:43:09.604Z,1.04
2023-01-25T22:46:16.392Z,1.08
2023-01-25T22:49:18.131Z,1.16
2023-01-25T22:52:19.789Z,1.11
2023-01-25T22:55:21.383Z,1.09
2023-01-25T22:58:22.893Z,1.02
2023-01-25T23:01:27.380Z,0.91
2023-01-25T23:04:29.119Z,0.91
2023-01-25T23:07:30.765Z,0.84
2023-01-25T23:10:32.349Z,0.88
2023-01-25T23:13:34.316Z,0.92
2023-01-25T23:16:36.367Z,0.94
2023-01-25T23:19:37.881Z,0.95
2023-01-25T23:22:40.154Z,0.92
2023-01-25T23:25:41.705Z,0.92
2023-01-25T23:28:43.696Z,0.95
2023-01-25T23:31:45.342Z,0.85
2023-01-25T23:34:53.113Z,0.82
2023-01-25T23:37:54.747Z,0.79
2023-01-25T23:41:01.147Z,0.70
2023-01-25T23:44:02.773Z,0.80
2023-01-25T23:47:04.461Z,0.89
2023-01-25T23:50:06.793Z,0.90
2023-01-25T23:53:08.318Z,0.88
2023-01-25T23:56:12.736Z,0.77
2023-01-25T23:59:14.343Z,0.70
